createdAt,value
2022-10-28T00:01:31.130Z,20.58
2022-10-28T00:04:01.975Z,20.53
2022-10-28T00:06:36.201Z,20.49
2022-10-28T00:09:08.209Z,20.42
2022-10-28T00:11:39.739Z,20.39
2022-10-28T00:14:08.698Z,20.33
2022-10-28T00:16:38.925Z,20.29
2022-10-28T00:19:08.841Z,20.23
2022-10-28T00:21:38.949Z,20.16
2022-10-28T00:24:08.978Z,20.13
2022-10-28T00:26:39.126Z,20.08
2022-10-28T00:29:12.066Z,20.04
2022-10-28T00:31:41.185Z,19.98
2022-10-28T00:34:17.175Z,19.93
2022-10-28T00:36:47.255Z,19.91
2022-10-28T00:39:21.200Z,19.86
2022-10-28T00:42:04.684Z,19.82
2022-10-28T00:44:54.292Z,19.78
2022-10-28T00:47:38.422Z,19.74
2022-10-28T00:50:26.961Z,19.67
2022-10-28T00:53:04.175Z,19.59
2022-10-28T00:55:34.115Z,19.52
2022-10-28T00:58:05.841Z,19.47
2022-10-28T01:00:36.720Z,19.40
2022-10-28T01:03:05.460Z,19.33
2022-10-28T01:05:37.521Z,19.24
2022-10-28T01:08:07.219Z,19.15
2022-10-28T01:11:03.315Z,19.06
2022-10-28T01:13:36.352Z,19.00
2022-10-28T01:16:26.180Z,18.95
2022-10-28T01:19:15.259Z,18.85
2022-10-28T01:22:14.778Z,18.77
2022-10-28T01:25:24.581Z,18.68
2022-10-28T01:28:24.202Z,18.60
2022-10-28T01:31:16.404Z,18.53
2022-10-28T01:34:09.600Z,18.47
2022-10-28T01:37:00.088Z,18.41
2022-10-28T01:39:50.659Z,18.34
2022-10-28T01:42:45.011Z,18.28
2022-10-28T01:45:20.395Z,18.25
2022-10-28T01:47:57.781Z,18.21
2022-10-28T01:50:33.983Z,18.14
2022-10-28T01:53:15.271Z,18.06
2022-10-28T01:55:49.026Z,18.02
2022-10-28T01:58:22.851Z,17.94
2022-10-28T02:00:51.957Z,17.87
2022-10-28T02:03:20.381Z,17.83
2022-10-28T02:05:52.866Z,17.80
2022-10-28T02:08:53.490Z,17.74
2022-10-28T02:11:55.025Z,17.66
2022-10-28T02:14:56.723Z,17.60
2022-10-28T02:17:55.735Z,17.53
2022-10-28T02:20:40.751Z,17.49
2022-10-28T02:23:34.307Z,17.44
2022-10-28T02:26:34.789Z,17.39
2022-10-28T02:29:06.780Z,17.33
2022-10-28T02:31:45.820Z,17.25
2022-10-28T02:34:19.701Z,17.21
2022-10-28T02:36:53.785Z,17.14
2022-10-28T02:39:33.665Z,17.09
2022-10-28T02:42:14.640Z,16.99
2022-10-28T02:44:48.390Z,16.93
2022-10-28T02:47:20.846Z,16.85
2022-10-28T02:49:54.924Z,16.82
2022-10-28T02:52:24.850Z,16.79
2022-10-28T02:54:57.041Z,16.73
2022-10-28T02:57:29.186Z,16.65
2022-10-28T03:00:03.555Z,16.58
2022-10-28T03:02:32.062Z,16.51
2022-10-28T03:05:00.380Z,16.46
2022-10-28T03:07:31.262Z,16.37
2022-10-28T03:09:59.575Z,16.31
2022-10-28T03:12:27.921Z,16.25
2022-10-28T03:14:56.226Z,16.17
2022-10-28T03:17:24.523Z,16.12
2022-10-28T03:19:52.828Z,16.08
2022-10-28T03:22:21.111Z,16.00
2022-10-28T03:24:49.500Z,15.95
2022-10-28T03:27:17.776Z,15.91
2022-10-28T03:29:48.022Z,15.86
2022-10-28T03:32:16.426Z,15.83
2022-10-28T03:34:44.855Z,15.78
2022-10-28T03:37:13.116Z,15.76
2022-10-28T03:39:41.665Z,15.71
2022-10-28T03:42:09.980Z,15.63
2022-10-28T03:44:38.244Z,15.56
2022-10-28T03:47:06.780Z,15.50
2022-10-28T03:49:38.160Z,15.44
2022-10-28T03:52:06.619Z,15.34
2022-10-28T03:54:34.942Z,15.27
2022-10-28T03:57:07.601Z,15.22
2022-10-28T03:59:37.601Z,15.15
2022-10-28T04:02:05.985Z,15.04
2022-10-28T04:04:34.618Z,15.00
2022-10-28T04:07:03.010Z,14.93
2022-10-28T04:09:31.281Z,14.88
2022-10-28T04:12:01.895Z,14.81
2022-10-28T04:14:30.241Z,14.74
2022-10-28T04:17:00.500Z,14.70
2022-10-28T04:19:29.100Z,14.66
2022-10-28T04:21:57.460Z,14.59
2022-10-28T04:24:25.815Z,14.53
2022-10-28T04:26:54.145Z,14.50
2022-10-28T04:29:22.457Z,14.45
2022-10-28T04:31:52.230Z,14.39
2022-10-28T04:34:22.101Z,14.35
2022-10-28T04:36:50.481Z,14.32
2022-10-28T04:39:19.096Z,14.27
2022-10-28T04:41:47.420Z,14.24
2022-10-28T04:44:15.742Z,14.22
2022-10-28T04:46:44.200Z,14.20
2022-10-28T04:49:15.100Z,14.18
2022-10-28T04:51:43.396Z,14.15
2022-10-28T04:54:11.760Z,14.11
2022-10-28T04:56:40.075Z,14.06
2022-10-28T04:59:08.379Z,14.01
2022-10-28T05:01:37.300Z,13.96
2022-10-28T05:04:06.127Z,13.93
2022-10-28T05:06:34.579Z,13.90
2022-10-28T05:09:05.646Z,13.86
2022-10-28T05:11:33.918Z,13.82
2022-10-28T05:14:02.210Z,13.80
2022-10-28T05:16:30.515Z,13.77
2022-10-28T05:18:59.586Z,13.74
2022-10-28T05:21:28.066Z,13.74
2022-10-28T05:23:56.466Z,13.71
2022-10-28T05:26:24.810Z,13.68
2022-10-28T05:28:53.180Z,13.63
2022-10-28T05:31:24.376Z,13.56
2022-10-28T05:33:52.684Z,13.52
2022-10-28T05:36:21.041Z,13.50
2022-10-28T05:38:50.759Z,13.44
2022-10-28T05:41:19.196Z,13.40
2022-10-28T05:43:47.535Z,13.35
2022-10-28T05:46:15.724Z,13.26
2022-10-28T05:48:44.061Z,13.22
2022-10-28T05:51:12.373Z,13.18
2022-10-28T05:53:42.745Z,13.16
2022-10-28T05:56:11.330Z,13.16
2022-10-28T05:58:40.107Z,13.14
2022-10-28T06:01:09.455Z,13.10
2022-10-28T06:03:37.899Z,13.04
2022-10-28T06:06:08.702Z,13.02
2022-10-28T06:08:41.431Z,12.99
2022-10-28T06:11:08.265Z,12.96
2022-10-28T06:13:36.628Z,12.93
2022-10-28T06:16:05.369Z,12.89
2022-10-28T06:18:38.846Z,12.88
2022-10-28T06:21:07.173Z,12.87
2022-10-28T06:23:37.959Z,12.80
2022-10-28T06:26:06.539Z,12.73
2022-10-28T06:28:35.018Z,12.72
2022-10-28T06:31:08.615Z,12.70
2022-10-28T06:33:37.004Z,12.63
2022-10-28T06:36:05.748Z,12.60
2022-10-28T06:38:34.070Z,12.56
2022-10-28T06:41:02.420Z,12.52
2022-10-28T06:43:30.836Z,12.51
2022-10-28T06:46:05.435Z,12.47
2022-10-28T06:48:34.894Z,12.43
2022-10-28T06:51:05.738Z,12.40
2022-10-28T06:53:34.345Z,12.36
2022-10-28T06:56:08.556Z,12.30
2022-10-28T06:58:37.200Z,12.26
2022-10-28T07:01:07.051Z,12.22
2022-10-28T07:03:35.348Z,12.16
2022-10-28T07:06:03.837Z,12.12
2022-10-28T07:08:35.609Z,12.11
2022-10-28T07:11:03.927Z,12.10
2022-10-28T07:13:32.201Z,12.09
2022-10-28T07:16:10.170Z,12.03
2022-10-28T07:18:38.429Z,11.99
2022-10-28T07:21:06.931Z,11.95
2022-10-28T07:23:35.327Z,11.93
2022-10-28T07:26:03.600Z,11.88
2022-10-28T07:28:38.020Z,11.85
2022-10-28T07:31:06.553Z,11.85
2022-10-28T07:33:34.851Z,11.85
2022-10-28T07:36:07.254Z,11.85
2022-10-28T07:38:38.830Z,11.80
2022-10-28T07:41:09.230Z,11.77
2022-10-28T07:43:45.185Z,11.74
2022-10-28T07:46:16.705Z,11.69
2022-10-28T07:48:48.243Z,11.65
2022-10-28T07:51:17.743Z,11.64
2022-10-28T07:53:46.091Z,11.65
2022-10-28T07:56:17.537Z,11.61
2022-10-28T07:58:49.019Z,11.57
2022-10-28T08:01:20.222Z,11.52
2022-10-28T08:03:49.215Z,11.49
2022-10-28T08:06:22.173Z,11.45
2022-10-28T08:08:55.930Z,11.42
2022-10-28T08:11:25.510Z,11.40
2022-10-28T08:13:54.495Z,11.40
2022-10-28T08:16:23.087Z,11.35
2022-10-28T08:18:51.424Z,11.28
2022-10-28T08:21:22.917Z,11.27
2022-10-28T08:23:52.221Z,11.26
2022-10-28T08:26:24.206Z,11.25
2022-10-28T08:28:52.540Z,11.22
2022-10-28T08:31:24.059Z,11.21
2022-10-28T08:33:52.382Z,11.17
2022-10-28T08:36:20.702Z,11.09
2022-10-28T08:38:49.019Z,11.03
2022-10-28T08:41:22.664Z,10.99
2022-10-28T08:44:07.742Z,10.98
2022-10-28T08:46:38.777Z,10.96
2022-10-28T08:49:14.100Z,10.92
2022-10-28T08:52:33.243Z,10.89
2022-10-28T08:55:18.316Z,10.87
2022-10-28T08:57:55.318Z,10.82
2022-10-28T09:00:29.511Z,10.75
2022-10-28T09:03:12.883Z,10.74
2022-10-28T09:05:45.603Z,10.74
2022-10-28T09:08:26.299Z,10.71
2022-10-28T09:11:23.353Z,10.70
2022-10-28T09:13:58.683Z,10.66
2022-10-28T09:16:56.556Z,10.64
2022-10-28T09:19:53.668Z,10.61
2022-10-28T09:22:43.446Z,10.59
2022-10-28T09:25:23.427Z,10.53
2022-10-28T09:28:06.143Z,10.51
2022-10-28T09:31:03.343Z,10.49
2022-10-28T09:33:58.946Z,10.48
2022-10-28T09:36:43.385Z,10.49
2022-10-28T09:39:26.802Z,10.45
2022-10-28T09:41:58.585Z,10.43
2022-10-28T09:44:50.635Z,10.40
2022-10-28T09:47:28.471Z,10.38
2022-10-28T09:50:05.388Z,10.33
2022-10-28T09:53:03.452Z,10.32
2022-10-28T09:55:35.567Z,10.31
2022-10-28T09:58:07.108Z,10.28
2022-10-28T10:00:37.707Z,10.25
2022-10-28T10:03:06.144Z,10.22
2022-10-28T10:05:43.745Z,10.21
2022-10-28T10:08:17.025Z,10.23
2022-10-28T10:11:04.292Z,10.21
2022-10-28T10:13:42.406Z,10.16
2022-10-28T10:16:20.793Z,10.17
2022-10-28T10:18:54.311Z,10.12
2022-10-28T10:21:46.302Z,10.06
2022-10-28T10:24:29.046Z,10.03
2022-10-28T10:27:02.471Z,9.98
2022-10-28T10:29:35.425Z,9.96
2022-10-28T10:32:15.906Z,9.92
2022-10-28T10:34:48.046Z,9.93
2022-10-28T10:37:23.067Z,9.89
2022-10-28T10:40:08.466Z,9.91
2022-10-28T10:42:46.500Z,9.91
2022-10-28T10:45:28.705Z,9.88
2022-10-28T10:48:15.468Z,9.79
2022-10-28T10:50:48.545Z,9.73
2022-10-28T10:53:32.707Z,9.72
2022-10-28T10:56:05.056Z,9.69
2022-10-28T10:58:36.602Z,9.67
2022-10-28T11:01:08.773Z,9.66
2022-10-28T11:03:41.767Z,9.64
2022-10-28T11:06:26.963Z,9.65
2022-10-28T11:09:04.314Z,9.68
2022-10-28T11:11:44.677Z,9.67
2022-10-28T11:14:15.571Z,9.64
2022-10-28T11:16:50.486Z,9.58
2022-10-28T11:19:25.835Z,9.56
2022-10-28T11:21:59.862Z,9.56
2022-10-28T11:24:46.636Z,9.57
2022-10-28T11:27:35.754Z,9.58
2022-10-28T11:30:18.152Z,9.56
2022-10-28T11:33:29.012Z,9.48
2022-10-28T11:36:16.897Z,9.38
2022-10-28T11:39:11.068Z,9.29
2022-10-28T11:41:49.167Z,9.23
2022-10-28T11:44:35.147Z,9.24
2022-10-28T11:47:21.688Z,9.26
2022-10-28T11:50:19.447Z,9.29
2022-10-28T11:53:10.307Z,9.28
2022-10-28T11:55:57.859Z,9.28
2022-10-28T11:58:53.310Z,9.29
2022-10-28T12:01:30.166Z,9.29
2022-10-28T12:04:23.433Z,9.29
2022-10-28T12:07:12.388Z,9.24
2022-10-28T12:10:12.927Z,9.22
2022-10-28T12:12:48.790Z,9.18
2022-10-28T12:16:00.600Z,9.11
2022-10-28T12:19:00.075Z,9.07
2022-10-28T12:21:49.344Z,9.05
2022-10-28T12:24:30.237Z,9.01
2022-10-28T12:27:03.592Z,8.97
2022-10-28T12:29:41.663Z,8.95
2022-10-28T12:32:21.010Z,8.94
2022-10-28T12:35:09.213Z,8.91
2022-10-28T12:38:04.246Z,8.92
2022-10-28T12:41:13.293Z,8.95
2022-10-28T12:43:50.906Z,8.90
2022-10-28T12:49:58.951Z,8.87
2022-10-28T12:52:48.072Z,8.86
2022-10-28T12:55:26.003Z,8.85
2022-10-28T12:58:15.383Z,8.83
2022-10-28T13:00:51.610Z,8.81
2022-10-28T13:03:19.973Z,8.79
2022-10-28T13:06:14.607Z,8.75
2022-10-28T13:09:04.063Z,8.74
2022-10-28T13:12:01.332Z,8.74
2022-10-28T13:17:57.657Z,8.72
2022-10-28T13:20:49.707Z,8.69
2022-10-28T13:23:45.047Z,8.68
2022-10-28T13:26:31.915Z,8.66
2022-10-28T13:29:08.581Z,8.62
2022-10-28T13:31:45.037Z,8.61
2022-10-28T13:34:19.822Z,8.59
2022-10-28T13:37:00.858Z,8.56
2022-10-28T13:39:34.945Z,8.54
2022-10-28T13:42:19.900Z,8.52
2022-10-28T13:45:01.794Z,8.50
2022-10-28T13:47:37.791Z,8.46
2022-10-28T13:50:09.378Z,8.45
2022-10-28T13:52:50.664Z,8.46
2022-10-28T13:55:47.284Z,8.46
2022-10-28T13:58:31.234Z,8.41
2022-10-28T14:01:40.054Z,8.37
2022-10-28T14:04:24.859Z,8.35
2022-10-28T14:07:22.744Z,8.33
2022-10-28T14:09:59.749Z,8.31
2022-10-28T14:12:45.144Z,8.32
2022-10-28T14:15:20.811Z,8.34
2022-10-28T14:18:16.110Z,8.31
2022-10-28T14:20:52.387Z,8.26
2022-10-28T14:23:23.752Z,8.24
2022-10-28T14:25:52.034Z,8.24
2022-10-28T14:28:32.280Z,8.19
2022-10-28T14:31:15.373Z,8.17
2022-10-28T14:33:43.725Z,8.17
2022-10-28T14:36:21.331Z,8.18
2022-10-28T14:39:06.965Z,8.24
2022-10-28T14:41:55.778Z,8.25
2022-10-28T14:44:45.063Z,8.23
2022-10-28T14:47:24.243Z,8.21
2022-10-28T14:50:07.595Z,8.22
2022-10-28T14:52:40.698Z,8.22
2022-10-28T14:55:20.222Z,8.26
2022-10-28T14:57:48.538Z,8.30
2022-10-28T15:00:21.857Z,8.32
2022-10-28T15:02:54.212Z,8.34
2022-10-28T15:05:26.758Z,8.38
2022-10-28T15:08:04.720Z,8.41
2022-10-28T15:10:35.295Z,8.43
2022-10-28T15:13:07.726Z,8.45
2022-10-28T15:15:36.196Z,8.48
2022-10-28T15:18:25.455Z,8.51
2022-10-28T15:21:16.888Z,8.56
2022-10-28T15:23:51.243Z,8.64
2022-10-28T15:26:23.584Z,8.71
2022-10-28T15:28:52.052Z,8.78
2022-10-28T15:31:20.306Z,8.82
2022-10-28T15:33:48.607Z,8.87
2022-10-28T15:36:20.763Z,8.95
2022-10-28T15:39:09.340Z,9.04
2022-10-28T15:41:46.754Z,9.15
2022-10-28T15:44:31.895Z,9.24
2022-10-28T15:47:03.761Z,9.33
2022-10-28T15:49:50.702Z,9.38
2022-10-28T15:52:23.122Z,9.46
2022-10-28T15:54:59.257Z,9.55
2022-10-28T15:57:47.755Z,9.64
2022-10-28T16:00:24.115Z,9.73
2022-10-28T16:02:59.307Z,9.83
2022-10-28T16:05:34.272Z,9.95
2022-10-28T16:08:07.062Z,10.06
2022-10-28T16:10:49.285Z,10.17
2022-10-28T16:13:37.448Z,10.29
2022-10-28T16:16:13.942Z,10.41
2022-10-28T16:18:51.260Z,10.51
2022-10-28T16:21:26.470Z,10.61
2022-10-28T16:24:00.060Z,10.68
2022-10-28T16:26:29.180Z,10.76
2022-10-28T16:29:03.264Z,10.86
2022-10-28T16:31:32.825Z,10.94
2022-10-28T16:34:01.202Z,11.01
2022-10-28T16:36:31.219Z,11.08
2022-10-28T16:39:00.321Z,11.17
2022-10-28T16:41:31.611Z,11.27
2022-10-28T16:43:59.941Z,11.39
2022-10-28T16:46:28.341Z,11.47
2022-10-28T16:48:56.672Z,11.54
2022-10-28T16:51:28.131Z,11.65
2022-10-28T16:53:56.371Z,11.75
2022-10-28T16:56:27.908Z,11.84
2022-10-28T16:58:56.225Z,11.95
2022-10-28T17:01:24.723Z,12.06
2022-10-28T17:03:53.061Z,12.18
2022-10-28T17:06:21.291Z,12.29
2022-10-28T17:09:02.333Z,12.39
2022-10-28T17:14:04.933Z,12.63
2022-10-28T17:16:38.027Z,12.72
2022-10-28T17:19:08.980Z,12.85
2022-10-28T17:21:37.340Z,12.97
2022-10-28T17:24:06.617Z,13.07
2022-10-28T17:26:34.938Z,13.18
2022-10-28T17:29:08.142Z,13.28
2022-10-28T17:31:36.480Z,13.38
2022-10-28T17:34:07.385Z,13.50
2022-10-28T17:36:41.080Z,13.60
2022-10-28T17:39:15.318Z,13.68
2022-10-28T17:41:45.418Z,13.78
2022-10-28T17:44:15.385Z,13.89
2022-10-28T17:46:43.754Z,14.01
2022-10-28T17:49:14.470Z,14.15
2022-10-28T17:51:42.925Z,14.27
2022-10-28T17:54:13.385Z,14.37
2022-10-28T17:56:42.940Z,14.51
2022-10-28T17:59:11.252Z,14.67
2022-10-28T18:01:42.470Z,14.78
2022-10-28T18:04:12.472Z,14.88
2022-10-28T18:06:40.779Z,15.00
2022-10-28T18:09:13.352Z,15.11
2022-10-28T18:11:41.758Z,15.22
2022-10-28T18:14:10.007Z,15.35
2022-10-28T18:16:41.786Z,15.52
2022-10-28T18:19:11.401Z,15.65
2022-10-28T18:21:41.472Z,15.78
2022-10-28T18:24:10.147Z,15.91
2022-10-28T18:26:41.989Z,16.01
2022-10-28T18:29:20.221Z,16.12
2022-10-28T18:31:50.891Z,16.21
2022-10-28T18:34:19.430Z,16.30
2022-10-28T18:36:50.302Z,16.39
2022-10-28T18:39:18.627Z,16.49
2022-10-28T18:41:49.816Z,16.56
2022-10-28T18:44:21.020Z,16.59
2022-10-28T18:46:49.385Z,16.67
2022-10-28T18:49:17.684Z,16.75
2022-10-28T18:51:45.990Z,16.83
2022-10-28T18:54:14.306Z,16.94
2022-10-28T18:56:46.218Z,17.06
2022-10-28T18:59:16.712Z,17.19
2022-10-28T19:01:47.616Z,17.29
2022-10-28T19:04:16.266Z,17.39
2022-10-28T19:06:44.576Z,17.51
2022-10-28T19:09:14.676Z,17.63
2022-10-28T19:11:43.012Z,17.72
2022-10-28T19:14:11.459Z,17.76
2022-10-28T19:16:42.231Z,17.83
2022-10-28T19:19:10.526Z,17.94
2022-10-28T19:21:38.879Z,18.06
2022-10-28T19:24:07.427Z,18.22
2022-10-28T19:26:35.906Z,18.33
2022-10-28T19:29:06.792Z,18.39
2022-10-28T19:31:41.672Z,18.47
2022-10-28T19:34:11.901Z,18.51
2022-10-28T19:36:40.222Z,18.58
2022-10-28T19:39:08.697Z,18.66
2022-10-28T19:41:37.026Z,18.71
2022-10-28T19:44:05.813Z,18.79
2022-10-28T19:46:36.416Z,18.89
2022-10-28T19:49:07.747Z,18.99
2022-10-28T19:51:45.683Z,19.06
2022-10-28T19:54:18.023Z,19.18
2022-10-28T19:56:50.936Z,19.28
2022-10-28T19:59:19.385Z,19.34
2022-10-28T20:01:47.825Z,19.39
2022-10-28T20:04:16.982Z,19.42
2022-10-28T20:06:45.258Z,19.49
2022-10-28T20:09:13.676Z,19.54
2022-10-28T20:11:44.273Z,19.53
2022-10-28T20:14:14.085Z,19.56
2022-10-28T20:16:43.732Z,19.62
2022-10-28T20:19:12.212Z,19.73
2022-10-28T20:21:41.397Z,19.80
2022-10-28T20:24:10.035Z,19.77
2022-10-28T20:26:39.906Z,19.81
2022-10-28T20:29:09.615Z,19.89
2022-10-28T20:31:39.740Z,20.05
2022-10-28T20:34:10.698Z,20.18
2022-10-28T20:36:46.592Z,20.31
2022-10-28T20:39:24.857Z,20.42
2022-10-28T20:41:53.226Z,20.46
2022-10-28T20:44:21.988Z,20.49
2022-10-28T20:46:51.227Z,20.58
2022-10-28T20:49:19.483Z,20.63
2022-10-28T20:51:47.737Z,20.66
2022-10-28T20:54:16.124Z,20.71
2022-10-28T20:56:44.451Z,20.81
2022-10-28T20:59:12.676Z,20.84
2022-10-28T21:01:42.363Z,20.86
2022-10-28T21:04:13.171Z,20.90
2022-10-28T21:06:41.494Z,20.96
2022-10-28T21:09:10.093Z,21.04
2022-10-28T21:11:38.382Z,21.16
2022-10-28T21:14:06.679Z,21.33
2022-10-28T21:16:34.972Z,21.46
2022-10-28T21:19:05.482Z,21.59
2022-10-28T21:21:33.920Z,21.70
2022-10-28T21:24:02.303Z,21.74
2022-10-28T21:26:30.597Z,21.81
2022-10-28T21:28:58.941Z,21.80
2022-10-28T21:31:30.476Z,21.68
2022-10-28T21:34:01.719Z,21.61
2022-10-28T21:36:32.861Z,21.61
2022-10-28T21:39:01.346Z,21.66
2022-10-28T21:41:29.682Z,21.71
2022-10-28T21:43:58.090Z,21.77
2022-10-28T21:46:26.622Z,21.86
2022-10-28T21:48:54.942Z,21.99
2022-10-28T21:51:23.994Z,22.02
2022-10-28T21:53:52.503Z,22.08
2022-10-28T21:56:21.685Z,22.16
2022-10-28T21:58:52.203Z,22.10
2022-10-28T22:01:25.808Z,21.96
2022-10-28T22:03:56.066Z,21.71
2022-10-28T22:06:25.339Z,21.45
2022-10-28T22:08:57.330Z,21.20
2022-10-28T22:11:26.308Z,21.06
2022-10-28T22:14:03.063Z,20.93
2022-10-28T22:16:34.322Z,20.85
2022-10-28T22:19:06.139Z,20.77
2022-10-28T22:21:41.113Z,20.73
2022-10-28T22:24:10.110Z,20.69
2022-10-28T22:26:38.861Z,20.63
2022-10-28T22:29:07.402Z,20.45
2022-10-28T22:31:36.696Z,20.28
2022-10-28T22:34:06.440Z,20.13
2022-10-28T22:36:35.599Z,20.09
2022-10-28T22:39:04.361Z,20.05
2022-10-28T22:41:34.226Z,20.00
2022-10-28T22:44:03.840Z,19.93
2022-10-28T22:46:34.764Z,19.79
2022-10-28T22:49:06.129Z,19.77
2022-10-28T22:51:34.461Z,19.69
2022-10-28T22:54:02.921Z,19.58
2022-10-28T22:56:31.402Z,19.56
2022-10-28T22:59:04.236Z,19.51
2022-10-28T23:01:32.593Z,19.51
2022-10-28T23:04:01.945Z,19.50
2022-10-28T23:06:31.291Z,19.50
2022-10-28T23:09:02.142Z,19.42
2022-10-28T23:11:30.595Z,19.28
2022-10-28T23:13:59.083Z,19.04
2022-10-28T23:16:27.461Z,18.87
2022-10-28T23:18:55.899Z,18.76
2022-10-28T23:21:26.441Z,18.68
2022-10-28T23:23:59.746Z,18.55
2022-10-28T23:26:29.985Z,18.46
2022-10-28T23:29:00.636Z,18.40
2022-10-28T23:31:29.952Z,18.35
2022-10-28T23:34:00.145Z,18.34
2022-10-28T23:36:28.572Z,18.36
2022-10-28T23:38:58.619Z,18.46
2022-10-28T23:41:28.858Z,18.51
2022-10-28T23:43:57.100Z,18.53
2022-10-28T23:46:25.993Z,18.56
2022-10-28T23:48:54.386Z,18.54
2022-10-28T23:51:22.671Z,18.48
2022-10-28T23:53:50.921Z,18.40
2022-10-28T23:56:19.261Z,18.28
2022-10-28T23:58:50.454Z,18.15
